createdAt,value
2018-12-10T00:02:38.138Z,99.60
2018-12-10T00:07:42.865Z,99.60
2018-12-10T00:12:47.582Z,99.60
2018-12-10T00:17:51.087Z,99.60
2018-12-10T00:22:55.965Z,99.60
2018-12-10T00:28:01.075Z,99.60
2018-12-10T00:33:06.082Z,99.60
2018-12-10T00:38:10.799Z,99.60
2018-12-10T00:43:15.482Z,99.60
2018-12-10T00:48:19.275Z,99.60
2018-12-10T00:53:23.005Z,99.60
2018-12-10T00:58:27.797Z,99.60
2018-12-10T01:03:32.102Z,99.60
2018-12-10T01:08:38.462Z,99.60
2018-12-10T01:13:42.183Z,99.60
2018-12-10T01:18:46.334Z,99.60
2018-12-10T01:23:50.940Z,99.60
2018-12-10T01:28:55.291Z,99.60
2018-12-10T01:33:59.881Z,99.60
2018-12-10T01:39:05.619Z,99.60
2018-12-10T01:44:09.024Z,99.60
2018-12-10T01:49:13.430Z,99.60
2018-12-10T01:54:18.531Z,99.60
2018-12-10T01:59:23.351Z,99.60
2018-12-10T02:04:28.197Z,99.60
2018-12-10T02:09:33.319Z,99.60
2018-12-10T02:14:37.771Z,99.60
2018-12-10T02:19:42.487Z,99.60
2018-12-10T02:24:47.202Z,99.60
2018-12-10T02:29:51.177Z,99.60
2018-12-10T02:34:55.991Z,99.60
2018-12-10T02:40:00.633Z,99.60
2018-12-10T02:45:05.884Z,99.60
2018-12-10T02:50:09.801Z,99.60
2018-12-10T02:55:13.311Z,99.60
2018-12-10T03:00:17.015Z,99.60
2018-12-10T03:05:22.254Z,99.60
2018-12-10T03:10:26.130Z,99.60
2018-12-10T03:15:30.620Z,99.60
2018-12-10T03:20:35.788Z,99.60
2018-12-10T03:25:40.143Z,99.60
2018-12-10T03:30:45.856Z,99.60
2018-12-10T03:35:49.932Z,99.60
2018-12-10T03:40:54.712Z,99.60
2018-12-10T03:45:59.601Z,99.60
2018-12-10T03:51:03.312Z,99.60
2018-12-10T03:56:08.110Z,99.60
2018-12-10T04:01:13.083Z,99.60
2018-12-10T04:06:17.907Z,99.60
2018-12-10T04:11:22.626Z,99.60
2018-12-10T04:16:27.730Z,99.60
2018-12-10T04:21:32.535Z,99.60
2018-12-10T04:26:37.041Z,99.60
2018-12-10T04:31:41.604Z,99.60
2018-12-10T04:36:46.125Z,99.60
2018-12-10T04:41:50.781Z,99.60
2018-12-10T04:46:54.643Z,99.60
2018-12-10T04:51:58.437Z,99.60
2018-12-10T04:57:01.856Z,99.60
2018-12-10T05:02:06.426Z,99.60
2018-12-10T05:07:11.575Z,99.60
2018-12-10T05:12:15.147Z,99.60
2018-12-10T05:17:18.740Z,99.60
2018-12-10T05:22:22.915Z,99.60
2018-12-10T05:27:26.747Z,99.60
2018-12-10T05:32:30.547Z,99.60
2018-12-10T05:37:34.274Z,99.60
2018-12-10T05:42:37.846Z,99.60
2018-12-10T05:47:41.793Z,99.60
2018-12-10T05:52:50.562Z,99.60
2018-12-10T05:57:55.380Z,99.60
2018-12-10T06:02:59.824Z,99.60
2018-12-10T06:08:04.416Z,99.60
2018-12-10T06:13:08.679Z,99.60
2018-12-10T06:18:13.576Z,99.60
2018-12-10T06:23:17.540Z,99.60
2018-12-10T06:28:22.332Z,99.60
2018-12-10T06:33:27.148Z,99.60
2018-12-10T06:38:31.021Z,99.60
2018-12-10T06:43:35.628Z,99.60
2018-12-10T06:48:40.153Z,99.60
2018-12-10T06:53:44.782Z,99.60
2018-12-10T06:58:49.156Z,99.60
2018-12-10T07:03:54.136Z,99.60
2018-12-10T07:08:58.896Z,99.60
2018-12-10T07:14:04.036Z,99.60
2018-12-10T07:19:08.448Z,99.60
2018-12-10T07:24:12.898Z,99.60
2018-12-10T07:29:17.457Z,99.60
2018-12-10T07:34:22.467Z,99.60
2018-12-10T07:39:26.846Z,99.60
2018-12-10T07:44:31.428Z,99.60
2018-12-10T07:49:36.013Z,99.60
2018-12-10T07:54:40.614Z,99.60
2018-12-10T07:59:44.218Z,99.60
2018-12-10T08:04:48.732Z,99.60
2018-12-10T08:09:52.713Z,99.60
2018-12-10T08:14:57.797Z,99.60
2018-12-10T08:20:02.312Z,99.60
2018-12-10T08:25:06.045Z,99.60
2018-12-10T08:30:09.670Z,99.60
2018-12-10T08:35:13.465Z,99.60
2018-12-10T08:40:17.363Z,99.60
2018-12-10T08:45:21.095Z,99.60
2018-12-10T08:50:24.701Z,99.60
2018-12-10T08:55:29.824Z,99.60
2018-12-10T09:00:34.298Z,99.60
2018-12-10T09:05:37.993Z,99.60
2018-12-10T09:10:41.683Z,99.60
2018-12-10T09:15:45.492Z,99.60
2018-12-10T09:20:49.104Z,99.60
2018-12-10T09:25:52.575Z,99.60
2018-12-10T09:30:57.106Z,99.60
2018-12-10T09:36:02.212Z,99.60
2018-12-10T09:41:05.689Z,99.60
2018-12-10T09:46:09.226Z,99.60
2018-12-10T09:51:12.699Z,99.60
2018-12-10T09:56:16.212Z,99.60
2018-12-10T10:01:19.775Z,99.60
2018-12-10T10:06:24.677Z,99.60
2018-12-10T10:11:29.486Z,99.60
2018-12-10T10:16:34.618Z,99.60
2018-12-10T10:21:39.405Z,99.60
2018-12-10T10:26:43.484Z,99.60
2018-12-10T10:31:48.384Z,99.60
2018-12-10T10:36:53.547Z,99.60
2018-12-10T10:41:58.697Z,99.60
2018-12-10T10:47:04.628Z,99.60
2018-12-10T10:52:09.246Z,99.60
2018-12-10T10:57:13.727Z,99.60
2018-12-10T11:07:57.208Z,99.60
2018-12-10T11:13:02.178Z,99.60
2018-12-10T11:18:06.540Z,99.60
2018-12-10T11:23:11.011Z,99.60
2018-12-10T11:28:14.622Z,99.60
2018-12-10T11:33:18.313Z,96.90
2018-12-10T11:38:23.371Z,95.80
2018-12-10T11:43:27.915Z,94.50
2018-12-10T11:48:32.701Z,89.80
2018-12-10T11:53:36.224Z,93.00
2018-12-10T11:58:40.797Z,92.30
2018-12-10T12:03:44.823Z,97.30
2018-12-10T12:08:50.682Z,99.60
2018-12-10T12:13:55.754Z,99.60
2018-12-10T12:18:59.424Z,99.60
2018-12-10T12:24:04.049Z,99.60
2018-12-10T12:29:08.560Z,99.60
2018-12-10T12:34:12.939Z,99.60
2018-12-10T12:39:17.021Z,99.60
2018-12-10T12:44:21.914Z,99.60
2018-12-10T12:49:25.416Z,99.60
2018-12-10T12:54:29.147Z,99.60
2018-12-10T12:59:33.772Z,98.50
2018-12-10T13:04:38.252Z,94.00
2018-12-10T13:09:43.148Z,99.60
2018-12-10T13:14:46.663Z,99.60
2018-12-10T13:19:51.092Z,99.60
2018-12-10T13:24:54.743Z,99.60
2018-12-10T13:29:58.417Z,99.60
2018-12-10T13:35:01.914Z,99.60
2018-12-10T13:40:08.064Z,99.60
2018-12-10T13:45:11.821Z,99.60
2018-12-10T13:50:15.328Z,99.60
2018-12-10T13:55:18.944Z,99.60
2018-12-10T14:00:22.658Z,99.60
2018-12-10T14:05:26.139Z,99.60
2018-12-10T14:10:29.644Z,99.60
2018-12-10T14:15:33.238Z,99.60
2018-12-10T14:20:37.797Z,99.60
2018-12-10T14:25:41.919Z,99.60
2018-12-10T14:30:45.548Z,99.60
2018-12-10T14:35:50.025Z,99.60
2018-12-10T14:40:55.101Z,99.60
2018-12-10T14:45:59.977Z,99.60
2018-12-10T14:51:05.520Z,99.60
2018-12-10T14:56:09.908Z,99.60
2018-12-10T15:01:14.704Z,99.60
2018-12-10T15:06:19.833Z,99.60
2018-12-10T15:11:24.343Z,99.60
2018-12-10T15:16:29.518Z,99.60
2018-12-10T15:21:34.754Z,99.60
2018-12-10T15:26:38.474Z,99.60
2018-12-10T15:31:43.548Z,99.60
2018-12-10T15:36:48.640Z,99.60
2018-12-10T15:41:52.821Z,99.60
2018-12-10T15:46:58.123Z,99.60
2018-12-10T15:52:01.928Z,99.60
2018-12-10T15:57:06.107Z,99.60
2018-12-10T16:02:10.602Z,99.60
2018-12-10T16:07:15.318Z,99.60
2018-12-10T16:12:19.973Z,99.60
2018-12-10T16:17:24.569Z,99.60
2018-12-10T16:22:29.847Z,99.60
2018-12-10T16:27:34.829Z,99.60
2018-12-10T16:32:39.474Z,99.60
2018-12-10T16:37:44.976Z,99.60
2018-12-10T16:42:48.893Z,99.60
2018-12-10T16:47:53.170Z,99.60
2018-12-10T16:52:57.673Z,99.60
2018-12-10T16:58:01.362Z,99.60
2018-12-10T17:03:05.681Z,99.60
2018-12-10T17:08:10.382Z,99.60
2018-12-10T17:13:14.952Z,99.60
2018-12-10T17:18:19.959Z,99.60
2018-12-10T17:23:24.444Z,99.60
2018-12-10T17:28:29.058Z,99.60
2018-12-10T17:33:34.099Z,99.60
2018-12-10T17:38:38.458Z,99.60
2018-12-10T17:43:43.041Z,99.60
2018-12-10T17:48:46.525Z,99.60
2018-12-10T17:53:51.406Z,99.60
2018-12-10T17:58:56.045Z,99.60
2018-12-10T18:04:00.536Z,99.60
2018-12-10T18:09:06.735Z,99.60
2018-12-10T18:14:10.927Z,99.60
2018-12-10T18:19:15.249Z,99.60
2018-12-10T18:24:21.297Z,99.60
2018-12-10T18:29:26.479Z,99.60
2018-12-10T18:34:30.115Z,99.60
2018-12-10T18:39:34.915Z,99.60
2018-12-10T18:44:38.576Z,99.60
2018-12-10T18:49:42.181Z,99.60
2018-12-10T18:54:45.886Z,99.60
2018-12-10T18:59:49.501Z,99.60
2018-12-10T19:04:53.077Z,99.60
2018-12-10T19:09:56.566Z,99.60
2018-12-10T19:15:00.301Z,99.60
2018-12-10T19:20:05.676Z,99.60
2018-12-10T19:25:09.174Z,99.60
2018-12-10T19:30:12.891Z,99.60
2018-12-10T19:35:16.395Z,99.60
2018-12-10T19:40:19.957Z,99.60
2018-12-10T19:45:24.974Z,99.60
2018-12-10T19:50:30.400Z,99.60
2018-12-10T19:55:35.456Z,99.60
2018-12-10T20:00:39.683Z,99.60
2018-12-10T20:11:24.049Z,99.60
2018-12-10T20:16:27.696Z,99.60
2018-12-10T20:21:32.214Z,99.60
2018-12-10T20:26:35.792Z,99.60
2018-12-10T20:31:40.910Z,99.60
2018-12-10T20:36:45.290Z,99.60
2018-12-10T20:41:50.179Z,99.60
2018-12-10T20:46:53.978Z,99.60
2018-12-10T20:51:59.096Z,99.60
2018-12-10T20:57:04.425Z,99.60
2018-12-10T21:02:08.855Z,99.60
2018-12-10T21:07:14.085Z,99.60
2018-12-10T21:12:18.294Z,99.60
2018-12-10T21:17:23.017Z,99.60
2018-12-10T21:22:28.712Z,99.60
2018-12-10T21:27:33.326Z,99.60
2018-12-10T21:32:38.136Z,99.60
2018-12-10T21:37:43.148Z,99.60
2018-12-10T21:42:46.856Z,99.60
2018-12-10T21:47:51.500Z,99.60
2018-12-10T21:52:55.712Z,99.60
2018-12-10T21:58:00.210Z,99.60
2018-12-10T22:03:04.019Z,99.60
2018-12-10T22:08:07.556Z,99.60
2018-12-10T22:13:12.475Z,99.60
2018-12-10T22:18:17.580Z,99.60
2018-12-10T22:28:52.884Z,99.60
2018-12-10T22:33:57.343Z,99.60
2018-12-10T22:39:00.939Z,99.60
2018-12-10T22:44:04.581Z,99.60
2018-12-10T22:49:08.682Z,99.60
2018-12-10T22:54:12.374Z,99.60
2018-12-10T22:59:16.089Z,99.60
2018-12-10T23:04:19.823Z,99.60
2018-12-10T23:09:23.499Z,99.60
2018-12-10T23:14:27.244Z,99.60
2018-12-10T23:19:30.866Z,99.60
2018-12-10T23:24:34.655Z,99.60
2018-12-10T23:29:38.177Z,99.60
2018-12-10T23:34:42.424Z,99.60
2018-12-10T23:39:47.828Z,99.60
2018-12-10T23:44:54.063Z,99.60
2018-12-10T23:49:58.049Z,99.60
2018-12-10T23:55:02.731Z,99.60
